Terminal Aerodrome Forecast
Issued by NWS

Current Version | Previous Version | Text Only | Print | Product List | Glossary On
Versions: 1 2 3 4 5 6 7 8 9 10 11 12
000
FTUS43 KGLD 211120
TAFMCK
TAF
KMCK 211120Z 2112/2212 01011KT P6SM VCSH BKN015
     FM211400 02013KT P6SM VCSH BKN008
     FM211700 03012G18KT 6SM -FZRA BKN008
     FM212100 01023G32KT 1SM -SN BLSN BKN008 OVC010
     FM220600 34030G40KT 1SM -SN BLSN BKN008 OVC015=

USA.gov is the U.S. government's official web portal to all federal, state and local government web resources and services.